sensor_id;sensor_type;location;lat;lon;timestamp;pressure;altitude;pressure_sealevel;temperature;humidity
49627;BME280;35527;54.616;39.786;2023-03-31T00:00:12;98999.16;;;2.42;100.00
49627;BME280;35527;54.616;39.786;2023-03-31T00:03:16;99018.63;;;2.47;100.00
49627;BME280;35527;54.616;39.786;2023-03-31T00:06:24;99010.97;;;2.46;100.00
49627;BME280;35527;54.616;39.786;2023-03-31T00:09:27;99013.31;;;2.58;100.00
49627;BME280;35527;54.616;39.786;2023-03-31T00:12:35;99021.47;;;2.76;100.00
49627;BME280;35527;54.616;39.786;2023-03-31T00:15:39;98988.66;;;2.56;100.00
49627;BME280;35527;54.616;39.786;2023-03-31T00:18:42;98997.16;;;2.56;100.00
49627;BME280;35527;54.616;39.786;2023-03-31T00:22:17;98988.34;;;2.73;100.00
49627;BME280;35527;54.616;39.786;2023-03-31T00:25:25;98992.00;;;2.59;100.00
49627;BME280;35527;54.616;39.786;2023-03-31T00:28:30;98988.47;;;2.65;100.00
49627;BME280;35527;54.616;39.786;2023-03-31T00:31:34;98978.72;;;2.43;100.00
49627;BME280;35527;54.616;39.786;2023-03-31T00:34:41;98958.84;;;2.58;100.00
49627;BME280;35527;54.616;39.786;2023-03-31T00:37:47;98975.56;;;2.71;100.00
49627;BME280;35527;54.616;39.786;2023-03-31T00:40:49;98977.00;;;2.84;100.00
49627;BME280;35527;54.616;39.786;2023-03-31T00:44:14;98971.34;;;2.70;100.00
49627;BME280;35527;54.616;39.786;2023-03-31T00:47:21;98984.00;;;2.76;100.00
49627;BME280;35527;54.616;39.786;2023-03-31T00:50:31;98986.41;;;2.82;100.00
49627;BME280;35527;54.616;39.786;2023-03-31T00:53:38;98970.25;;;2.80;100.00
49627;BME280;35527;54.616;39.786;2023-03-31T00:56:46;98962.38;;;2.91;100.00
49627;BME280;35527;54.616;39.786;2023-03-31T00:59:54;98971.13;;;2.81;100.00
49627;BME280;35527;54.616;39.786;2023-03-31T01:03:02;98964.38;;;2.77;100.00
49627;BME280;35527;54.616;39.786;2023-03-31T01:06:08;98950.00;;;2.73;100.00
49627;BME280;35527;54.616;39.786;2023-03-31T01:09:16;98964.31;;;2.80;100.00
49627;BME280;35527;54.616;39.786;2023-03-31T01:12:20;98977.56;;;2.99;100.00
49627;BME280;35527;54.616;39.786;2023-03-31T01:15:25;98972.41;;;2.60;100.00
49627;BME280;35527;54.616;39.786;2023-03-31T01:18:29;98980.19;;;2.54;100.00
49627;BME280;35527;54.616;39.786;2023-03-31T01:22:23;98984.06;;;2.73;100.00
49627;BME280;35527;54.616;39.786;2023-03-31T01:28:59;98950.88;;;2.71;100.00
49627;BME280;35527;54.616;39.786;2023-03-31T01:42:19;98923.69;;;2.69;100.00
49627;BME280;35527;54.616;39.786;2023-03-31T01:52:21;98922.66;;;2.78;100.00
49627;BME280;35527;54.616;39.786;2023-03-31T01:55:34;98955.84;;;3.16;100.00
49627;BME280;35527;54.616;39.786;2023-03-31T01:58:49;98929.34;;;2.83;100.00
49627;BME280;35527;54.616;39.786;2023-03-31T02:02:07;98942.69;;;2.94;100.00
49627;BME280;35527;54.616;39.786;2023-03-31T02:05:17;98922.25;;;2.94;100.00
49627;BME280;35527;54.616;39.786;2023-03-31T02:08:28;98939.66;;;2.79;100.00
49627;BME280;35527;54.616;39.786;2023-03-31T02:11:33;98918.59;;;2.67;100.00
49627;BME280;35527;54.616;39.786;2023-03-31T02:14:43;98923.63;;;2.72;100.00
49627;BME280;35527;54.616;39.786;2023-03-31T02:17:52;98933.63;;;2.81;100.00
49627;BME280;35527;54.616;39.786;2023-03-31T02:21:00;98887.50;;;2.48;100.00
49627;BME280;35527;54.616;39.786;2023-03-31T02:24:06;98917.84;;;2.64;100.00
49627;BME280;35527;54.616;39.786;2023-03-31T02:27:24;98930.50;;;2.68;100.00
49627;BME280;35527;54.616;39.786;2023-03-31T02:30:35;98945.59;;;2.81;100.00
49627;BME280;35527;54.616;39.786;2023-03-31T02:33:47;98939.78;;;2.73;100.00
49627;BME280;35527;54.616;39.786;2023-03-31T02:36:51;98943.09;;;2.78;100.00
49627;BME280;35527;54.616;39.786;2023-03-31T02:40:00;98971.22;;;3.15;100.00
49627;BME280;35527;54.616;39.786;2023-03-31T02:43:06;98978.84;;;3.18;100.00
49627;BME280;35527;54.616;39.786;2023-03-31T02:46:14;98967.56;;;3.25;100.00
49627;BME280;35527;54.616;39.786;2023-03-31T02:49:18;98963.22;;;3.29;100.00
49627;BME280;35527;54.616;39.786;2023-03-31T02:52:44;98930.22;;;3.20;100.00
49627;BME280;35527;54.616;39.786;2023-03-31T03:02:56;98927.97;;;3.06;100.00
49627;BME280;35527;54.616;39.786;2023-03-31T03:10:00;98919.31;;;3.11;100.00
49627;BME280;35527;54.616;39.786;2023-03-31T03:13:17;98916.00;;;3.08;100.00
49627;BME280;35527;54.616;39.786;2023-03-31T03:19:30;98899.16;;;2.99;100.00
49627;BME280;35527;54.616;39.786;2023-03-31T03:22:37;98894.81;;;3.03;100.00
49627;BME280;35527;54.616;39.786;2023-03-31T03:25:43;98892.97;;;3.09;100.00
49627;BME280;35527;54.616;39.786;2023-03-31T03:28:49;98897.19;;;3.10;100.00
49627;BME280;35527;54.616;39.786;2023-03-31T03:31:53;98893.75;;;3.11;100.00
49627;BME280;35527;54.616;39.786;2023-03-31T03:35:00;98880.22;;;3.08;100.00
49627;BME280;35527;54.616;39.786;2023-03-31T03:38:06;98865.34;;;2.88;100.00
49627;BME280;35527;54.616;39.786;2023-03-31T03:41:09;98882.00;;;3.04;100.00
49627;BME280;35527;54.616;39.786;2023-03-31T03:44:13;98890.56;;;3.37;100.00
49627;BME280;35527;54.616;39.786;2023-03-31T03:47:20;98889.19;;;3.58;100.00
49627;BME280;35527;54.616;39.786;2023-03-31T03:50:23;98908.53;;;3.34;100.00
49627;BME280;35527;54.616;39.786;2023-03-31T03:53:27;98885.09;;;3.17;100.00
49627;BME280;35527;54.616;39.786;2023-03-31T03:56:31;98884.91;;;3.26;100.00
49627;BME280;35527;54.616;39.786;2023-03-31T03:59:34;98882.75;;;3.09;100.00
49627;BME280;35527;54.616;39.786;2023-03-31T04:02:38;98856.31;;;3.09;100.00
49627;BME280;35527;54.616;39.786;2023-03-31T04:05:42;98849.97;;;3.25;100.00
49627;BME280;35527;54.616;39.786;2023-03-31T04:08:48;98855.06;;;3.27;100.00
49627;BME280;35527;54.616;39.786;2023-03-31T04:11:51;98845.25;;;3.08;100.00
49627;BME280;35527;54.616;39.786;2023-03-31T04:14:56;98866.50;;;3.12;100.00
49627;BME280;35527;54.616;39.786;2023-03-31T04:17:58;98859.75;;;3.09;100.00
49627;BME280;35527;54.616;39.786;2023-03-31T04:21:11;98838.31;;;3.13;100.00
49627;BME280;35527;54.616;39.786;2023-03-31T04:24:18;98857.19;;;3.09;100.00
49627;BME280;35527;54.616;39.786;2023-03-31T04:27:24;98863.06;;;3.13;100.00
49627;BME280;35527;54.616;39.786;2023-03-31T04:30:28;98869.91;;;3.11;100.00
49627;BME280;35527;54.616;39.786;2023-03-31T04:33:38;98876.84;;;3.40;100.00
49627;BME280;35527;54.616;39.786;2023-03-31T04:36:43;98866.47;;;3.46;100.00
49627;BME280;35527;54.616;39.786;2023-03-31T04:39:49;98855.56;;;3.39;100.00
49627;BME280;35527;54.616;39.786;2023-03-31T04:43:01;98846.50;;;3.28;100.00
49627;BME280;35527;54.616;39.786;2023-03-31T04:46:06;98849.66;;;3.37;100.00
49627;BME280;35527;54.616;39.786;2023-03-31T04:49:09;98838.00;;;3.27;100.00
49627;BME280;35527;54.616;39.786;2023-03-31T04:52:13;98838.47;;;3.42;100.00
49627;BME280;35527;54.616;39.786;2023-03-31T04:55:18;98835.34;;;3.63;100.00
49627;BME280;35527;54.616;39.786;2023-03-31T04:58:22;98823.88;;;3.45;100.00
49627;BME280;35527;54.616;39.786;2023-03-31T05:01:25;98826.34;;;3.48;100.00
49627;BME280;35527;54.616;39.786;2023-03-31T05:04:29;98839.44;;;3.69;100.00
49627;BME280;35527;54.616;39.786;2023-03-31T05:07:33;98832.91;;;3.58;100.00
49627;BME280;35527;54.616;39.786;2023-03-31T05:10:39;98836.31;;;3.59;100.00
49627;BME280;35527;54.616;39.786;2023-03-31T05:13:42;98834.03;;;3.48;100.00
49627;BME280;35527;54.616;39.786;2023-03-31T05:16:45;98843.00;;;3.63;100.00
49627;BME280;35527;54.616;39.786;2023-03-31T05:19:51;98834.97;;;3.77;100.00
49627;BME280;35527;54.616;39.786;2023-03-31T05:22:55;98850.41;;;3.74;100.00
49627;BME280;35527;54.616;39.786;2023-03-31T05:25:58;98843.72;;;3.70;100.00
49627;BME280;35527;54.616;39.786;2023-03-31T05:29:03;98832.06;;;3.89;100.00
49627;BME280;35527;54.616;39.786;2023-03-31T05:32:08;98819.25;;;3.89;100.00
49627;BME280;35527;54.616;39.786;2023-03-31T05:35:12;98834.38;;;3.98;100.00
49627;BME280;35527;54.616;39.786;2023-03-31T05:38:16;98812.19;;;3.99;100.00
49627;BME280;35527;54.616;39.786;2023-03-31T05:41:20;98835.03;;;4.05;100.00
49627;BME280;35527;54.616;39.786;2023-03-31T05:44:28;98832.22;;;4.14;100.00
49627;BME280;35527;54.616;39.786;2023-03-31T05:47:31;98826.81;;;3.95;100.00
49627;BME280;35527;54.616;39.786;2023-03-31T05:50:35;98813.09;;;3.98;100.00
49627;BME280;35527;54.616;39.786;2023-03-31T05:53:38;98824.31;;;3.92;100.00
49627;BME280;35527;54.616;39.786;2023-03-31T05:56:42;98804.72;;;3.91;100.00
49627;BME280;35527;54.616;39.786;2023-03-31T05:59:45;98809.66;;;3.97;100.00
49627;BME280;35527;54.616;39.786;2023-03-31T06:02:48;98814.03;;;3.94;100.00
49627;BME280;35527;54.616;39.786;2023-03-31T06:05:51;98800.66;;;3.84;100.00
49627;BME280;35527;54.616;39.786;2023-03-31T06:08:56;98806.25;;;3.97;100.00
49627;BME280;35527;54.616;39.786;2023-03-31T06:12:01;98800.41;;;3.93;100.00
49627;BME280;35527;54.616;39.786;2023-03-31T06:15:05;98796.28;;;4.17;100.00
49627;BME280;35527;54.616;39.786;2023-03-31T06:18:09;98802.19;;;4.19;100.00
49627;BME280;35527;54.616;39.786;2023-03-31T06:21:17;98790.91;;;4.26;100.00
49627;BME280;35527;54.616;39.786;2023-03-31T06:24:21;98790.91;;;4.26;100.00
49627;BME280;35527;54.616;39.786;2023-03-31T06:27:24;98789.59;;;4.41;100.00
49627;BME280;35527;54.616;39.786;2023-03-31T06:30:28;98793.78;;;4.44;100.00
49627;BME280;35527;54.616;39.786;2023-03-31T06:33:32;98788.88;;;4.64;100.00
49627;BME280;35527;54.616;39.786;2023-03-31T06:36:35;98786.00;;;4.47;100.00
49627;BME280;35527;54.616;39.786;2023-03-31T06:39:38;98802.53;;;4.65;100.00
49627;BME280;35527;54.616;39.786;2023-03-31T06:42:41;98772.28;;;4.49;100.00
49627;BME280;35527;54.616;39.786;2023-03-31T06:45:47;98781.09;;;4.67;100.00
49627;BME280;35527;54.616;39.786;2023-03-31T06:48:49;98793.69;;;4.75;100.00
49627;BME280;35527;54.616;39.786;2023-03-31T06:51:53;98791.66;;;4.85;100.00
49627;BME280;35527;54.616;39.786;2023-03-31T06:54:56;98791.19;;;4.72;100.00
49627;BME280;35527;54.616;39.786;2023-03-31T06:58:02;98778.19;;;4.78;100.00
49627;BME280;35527;54.616;39.786;2023-03-31T07:01:05;98779.72;;;4.84;100.00
49627;BME280;35527;54.616;39.786;2023-03-31T07:04:09;98785.88;;;4.78;100.00
49627;BME280;35527;54.616;39.786;2023-03-31T07:07:12;98774.72;;;4.79;100.00
49627;BME280;35527;54.616;39.786;2023-03-31T07:10:16;98762.13;;;4.73;100.00
49627;BME280;35527;54.616;39.786;2023-03-31T07:13:18;98763.72;;;4.49;100.00
49627;BME280;35527;54.616;39.786;2023-03-31T07:16:22;98757.44;;;4.59;100.00
49627;BME280;35527;54.616;39.786;2023-03-31T07:19:28;98755.56;;;4.91;100.00
49627;BME280;35527;54.616;39.786;2023-03-31T07:22:36;98739.47;;;5.12;100.00
49627;BME280;35527;54.616;39.786;2023-03-31T07:25:39;98737.84;;;5.10;100.00
49627;BME280;35527;54.616;39.786;2023-03-31T07:28:42;98733.28;;;4.93;100.00
49627;BME280;35527;54.616;39.786;2023-03-31T07:31:46;98732.13;;;5.02;100.00
49627;BME280;35527;54.616;39.786;2023-03-31T07:34:51;98742.50;;;4.99;100.00
49627;BME280;35527;54.616;39.786;2023-03-31T07:37:55;98739.38;;;4.89;100.00
49627;BME280;35527;54.616;39.786;2023-03-31T07:41:00;98749.06;;;5.06;100.00
49627;BME280;35527;54.616;39.786;2023-03-31T07:44:07;98739.81;;;5.02;100.00
49627;BME280;35527;54.616;39.786;2023-03-31T07:47:13;98757.31;;;4.89;100.00
49627;BME280;35527;54.616;39.786;2023-03-31T07:50:16;98753.72;;;4.94;100.00
49627;BME280;35527;54.616;39.786;2023-03-31T07:53:21;98744.59;;;4.86;100.00
49627;BME280;35527;54.616;39.786;2023-03-31T07:56:25;98728.41;;;4.85;100.00
49627;BME280;35527;54.616;39.786;2023-03-31T07:59:30;98737.50;;;5.19;100.00
49627;BME280;35527;54.616;39.786;2023-03-31T08:02:33;98726.28;;;4.98;100.00
49627;BME280;35527;54.616;39.786;2023-03-31T08:05:35;98727.88;;;5.01;100.00
49627;BME280;35527;54.616;39.786;2023-03-31T08:08:39;98738.41;;;5.18;100.00
49627;BME280;35527;54.616;39.786;2023-03-31T08:11:48;98707.31;;;5.51;100.00
49627;BME280;35527;54.616;39.786;2023-03-31T08:14:51;98718.94;;;5.61;100.00
49627;BME280;35527;54.616;39.786;2023-03-31T08:17:57;98729.69;;;5.47;100.00
49627;BME280;35527;54.616;39.786;2023-03-31T08:21:00;98730.97;;;5.10;100.00
49627;BME280;35527;54.616;39.786;2023-03-31T08:24:04;98739.00;;;5.73;100.00
49627;BME280;35527;54.616;39.786;2023-03-31T08:27:08;98728.97;;;5.67;100.00
49627;BME280;35527;54.616;39.786;2023-03-31T08:30:18;98723.94;;;5.64;100.00
49627;BME280;35527;54.616;39.786;2023-03-31T08:33:22;98733.19;;;5.45;100.00
49627;BME280;35527;54.616;39.786;2023-03-31T08:36:27;98732.84;;;5.54;100.00
49627;BME280;35527;54.616;39.786;2023-03-31T08:39:32;98718.84;;;5.39;100.00
49627;BME280;35527;54.616;39.786;2023-03-31T08:42:52;98730.41;;;5.51;100.00
49627;BME280;35527;54.616;39.786;2023-03-31T08:46:00;98697.50;;;5.38;100.00
49627;BME280;35527;54.616;39.786;2023-03-31T08:49:05;98728.56;;;5.54;100.00
49627;BME280;35527;54.616;39.786;2023-03-31T08:52:18;98715.34;;;5.65;100.00
49627;BME280;35527;54.616;39.786;2023-03-31T08:55:29;98707.38;;;5.73;100.00
49627;BME280;35527;54.616;39.786;2023-03-31T09:08:40;98704.31;;;6.52;100.00
49627;BME280;35527;54.616;39.786;2023-03-31T09:11:50;98684.50;;;6.54;100.00
49627;BME280;35527;54.616;39.786;2023-03-31T09:15:03;98694.72;;;6.56;100.00
49627;BME280;35527;54.616;39.786;2023-03-31T09:18:38;98695.63;;;6.55;100.00
49627;BME280;35527;54.616;39.786;2023-03-31T09:21:48;98685.16;;;6.60;100.00
49627;BME280;35527;54.616;39.786;2023-03-31T09:24:56;98687.03;;;6.76;100.00
49627;BME280;35527;54.616;39.786;2023-03-31T09:28:12;98686.69;;;6.64;100.00
49627;BME280;35527;54.616;39.786;2023-03-31T09:31:19;98691.63;;;6.48;100.00
49627;BME280;35527;54.616;39.786;2023-03-31T09:34:31;98685.16;;;6.60;100.00
49627;BME280;35527;54.616;39.786;2023-03-31T09:37:39;98679.22;;;6.37;100.00
49627;BME280;35527;54.616;39.786;2023-03-31T09:40:42;98670.00;;;6.53;100.00
49627;BME280;35527;54.616;39.786;2023-03-31T09:43:46;98660.22;;;6.41;100.00
49627;BME280;35527;54.616;39.786;2023-03-31T09:46:50;98671.44;;;6.39;100.00
49627;BME280;35527;54.616;39.786;2023-03-31T09:49:55;98669.41;;;6.47;100.00
49627;BME280;35527;54.616;39.786;2023-03-31T09:53:04;98670.69;;;6.57;100.00
49627;BME280;35527;54.616;39.786;2023-03-31T09:56:08;98660.41;;;6.57;100.00
49627;BME280;35527;54.616;39.786;2023-03-31T09:59:29;98667.94;;;6.41;100.00
49627;BME280;35527;54.616;39.786;2023-03-31T10:02:36;98662.38;;;6.30;100.00
49627;BME280;35527;54.616;39.786;2023-03-31T10:05:50;98658.31;;;6.24;100.00
49627;BME280;35527;54.616;39.786;2023-03-31T10:08:56;98659.19;;;6.23;100.00
49627;BME280;35527;54.616;39.786;2023-03-31T10:12:13;98649.06;;;6.41;100.00
49627;BME280;35527;54.616;39.786;2023-03-31T10:15:21;98652.22;;;6.27;100.00
49627;BME280;35527;54.616;39.786;2023-03-31T10:18:32;98648.59;;;6.11;100.00
49627;BME280;35527;54.616;39.786;2023-03-31T10:21:37;98655.41;;;6.12;100.00
49627;BME280;35527;54.616;39.786;2023-03-31T10:24:45;98646.72;;;6.36;100.00
49627;BME280;35527;54.616;39.786;2023-03-31T10:27:52;98629.94;;;6.27;100.00
49627;BME280;35527;54.616;39.786;2023-03-31T10:30:57;98633.78;;;6.38;100.00
49627;BME280;35527;54.616;39.786;2023-03-31T10:34:08;98644.72;;;6.43;100.00
49627;BME280;35527;54.616;39.786;2023-03-31T10:37:21;98646.34;;;6.45;100.00
49627;BME280;35527;54.616;39.786;2023-03-31T10:40:28;98638.66;;;6.23;100.00
49627;BME280;35527;54.616;39.786;2023-03-31T10:43:39;98645.56;;;6.64;100.00
49627;BME280;35527;54.616;39.786;2023-03-31T10:46:51;98641.03;;;6.28;100.00
49627;BME280;35527;54.616;39.786;2023-03-31T10:49:57;98638.25;;;5.90;100.00
49627;BME280;35527;54.616;39.786;2023-03-31T10:53:12;98655.94;;;5.74;100.00
49627;BME280;35527;54.616;39.786;2023-03-31T11:22:56;98666.25;;;5.51;100.00
49627;BME280;35527;54.616;39.786;2023-03-31T11:26:16;98671.53;;;5.23;100.00
49627;BME280;35527;54.616;39.786;2023-03-31T11:29:29;98666.50;;;5.21;100.00
49627;BME280;35527;54.616;39.786;2023-03-31T11:43:25;98650.41;;;5.16;100.00
49627;BME280;35527;54.616;39.786;2023-03-31T11:46:43;98654.31;;;5.26;100.00
49627;BME280;35527;54.616;39.786;2023-03-31T11:49:56;98663.47;;;5.33;100.00
49627;BME280;35527;54.616;39.786;2023-03-31T11:53:16;98659.84;;;5.15;100.00
49627;BME280;35527;54.616;39.786;2023-03-31T11:56:34;98677.94;;;5.11;100.00
49627;BME280;35527;54.616;39.786;2023-03-31T11:59:41;98661.94;;;5.04;100.00
49627;BME280;35527;54.616;39.786;2023-03-31T12:02:50;98680.13;;;4.98;100.00
49627;BME280;35527;54.616;39.786;2023-03-31T12:06:01;98675.13;;;5.18;100.00
49627;BME280;35527;54.616;39.786;2023-03-31T12:12:28;98682.63;;;5.23;100.00
49627;BME280;35527;54.616;39.786;2023-03-31T12:15:51;98660.78;;;5.36;100.00
49627;BME280;35527;54.616;39.786;2023-03-31T12:22:49;98663.69;;;5.51;100.00
49627;BME280;35527;54.616;39.786;2023-03-31T12:25:54;98664.28;;;5.57;100.00
49627;BME280;35527;54.616;39.786;2023-03-31T12:29:06;98657.75;;;5.27;100.00
49627;BME280;35527;54.616;39.786;2023-03-31T12:32:21;98657.78;;;5.25;100.00
49627;BME280;35527;54.616;39.786;2023-03-31T12:42:38;98690.91;;;4.56;100.00
49627;BME280;35527;54.616;39.786;2023-03-31T12:55:54;98691.88;;;4.52;100.00
49627;BME280;35527;54.616;39.786;2023-03-31T12:59:17;98677.47;;;4.74;100.00
49627;BME280;35527;54.616;39.786;2023-03-31T13:02:25;98687.84;;;4.71;100.00
49627;BME280;35527;54.616;39.786;2023-03-31T13:08:59;98670.22;;;4.87;100.00
49627;BME280;35527;54.616;39.786;2023-03-31T13:12:13;98680.66;;;5.06;100.00
49627;BME280;35527;54.616;39.786;2023-03-31T13:15:20;98679.75;;;4.84;100.00
49627;BME280;35527;54.616;39.786;2023-03-31T13:18:31;98673.59;;;4.89;100.00
49627;BME280;35527;54.616;39.786;2023-03-31T13:21:51;98681.41;;;4.85;100.00
49627;BME280;35527;54.616;39.786;2023-03-31T13:28:40;98686.88;;;4.76;100.00
49627;BME280;35527;54.616;39.786;2023-03-31T13:35:22;98678.63;;;5.16;100.00
49627;BME280;35527;54.616;39.786;2023-03-31T13:38:36;98670.28;;;5.09;100.00
49627;BME280;35527;54.616;39.786;2023-03-31T13:52:35;98673.63;;;5.13;100.00
49627;BME280;35527;54.616;39.786;2023-03-31T13:59:25;98680.00;;;5.01;100.00
49627;BME280;35527;54.616;39.786;2023-03-31T14:06:26;98674.38;;;5.15;100.00
49627;BME280;35527;54.616;39.786;2023-03-31T14:09:35;98672.13;;;5.06;100.00
49627;BME280;35527;54.616;39.786;2023-03-31T14:12:41;98672.72;;;5.14;100.00
49627;BME280;35527;54.616;39.786;2023-03-31T14:15:49;98654.38;;;5.01;100.00
49627;BME280;35527;54.616;39.786;2023-03-31T14:19:18;98655.56;;;5.16;100.00
49627;BME280;35527;54.616;39.786;2023-03-31T14:39:56;98656.00;;;4.79;97.98
49627;BME280;35527;54.616;39.786;2023-03-31T14:43:00;98663.94;;;4.71;97.48
49627;BME280;35527;54.616;39.786;2023-03-31T14:46:07;98670.09;;;4.65;97.95
49627;BME280;35527;54.616;39.786;2023-03-31T14:49:35;98677.00;;;4.63;96.99
49627;BME280;35527;54.616;39.786;2023-03-31T14:52:45;98652.81;;;4.47;97.61
49627;BME280;35527;54.616;39.786;2023-03-31T14:55:49;98669.69;;;4.53;97.25
49627;BME280;35527;54.616;39.786;2023-03-31T14:59:00;98670.63;;;4.50;95.38
49627;BME280;35527;54.616;39.786;2023-03-31T15:02:15;98670.47;;;4.55;96.42
49627;BME280;35527;54.616;39.786;2023-03-31T15:05:27;98660.91;;;4.60;96.33
49627;BME280;35527;54.616;39.786;2023-03-31T15:08:31;98665.41;;;4.53;96.68
49627;BME280;35527;54.616;39.786;2023-03-31T15:11:37;98673.47;;;4.67;97.18
49627;BME280;35527;54.616;39.786;2023-03-31T15:14:55;98669.16;;;4.68;94.96
49627;BME280;35527;54.616;39.786;2023-03-31T15:18:02;98646.56;;;4.54;94.42
49627;BME280;35527;54.616;39.786;2023-03-31T15:21:09;98646.16;;;4.41;93.56
49627;BME280;35527;54.616;39.786;2023-03-31T15:24:21;98671.50;;;4.49;93.58
49627;BME280;35527;54.616;39.786;2023-03-31T15:27:34;98665.72;;;4.44;91.83
49627;BME280;35527;54.616;39.786;2023-03-31T15:30:41;98665.13;;;4.36;93.06
49627;BME280;35527;54.616;39.786;2023-03-31T15:33:45;98666.94;;;4.32;93.21
49627;BME280;35527;54.616;39.786;2023-03-31T15:36:53;98671.81;;;4.40;91.03
49627;BME280;35527;54.616;39.786;2023-03-31T15:39:57;98650.91;;;3.99;90.41
49627;BME280;35527;54.616;39.786;2023-03-31T15:43:05;98686.94;;;4.21;89.18
49627;BME280;35527;54.616;39.786;2023-03-31T15:46:24;98667.84;;;4.03;90.32
49627;BME280;35527;54.616;39.786;2023-03-31T15:49:29;98691.50;;;4.11;90.72
49627;BME280;35527;54.616;39.786;2023-03-31T15:52:35;98680.38;;;4.12;90.34
49627;BME280;35527;54.616;39.786;2023-03-31T15:55:41;98687.97;;;4.15;90.83
49627;BME280;35527;54.616;39.786;2023-03-31T15:58:52;98675.41;;;4.07;91.75
49627;BME280;35527;54.616;39.786;2023-03-31T16:02:00;98683.81;;;4.11;92.00
49627;BME280;35527;54.616;39.786;2023-03-31T16:05:21;98690.47;;;4.17;91.63
49627;BME280;35527;54.616;39.786;2023-03-31T16:08:34;98666.28;;;3.99;91.44
49627;BME280;35527;54.616;39.786;2023-03-31T16:11:44;98690.47;;;4.17;91.83
49627;BME280;35527;54.616;39.786;2023-03-31T16:14:58;98641.72;;;3.93;91.99
49627;BME280;35527;54.616;39.786;2023-03-31T16:18:12;98677.06;;;4.09;91.74
49627;BME280;35527;54.616;39.786;2023-03-31T16:21:21;98674.41;;;4.12;91.44
49627;BME280;35527;54.616;39.786;2023-03-31T16:24:31;98690.84;;;4.04;91.21
49627;BME280;35527;54.616;39.786;2023-03-31T16:27:46;98694.31;;;4.03;91.08
49627;BME280;35527;54.616;39.786;2023-03-31T16:30:53;98682.75;;;3.90;91.35
49627;BME280;35527;54.616;39.786;2023-03-31T16:33:59;98693.53;;;4.00;91.12
49627;BME280;35527;54.616;39.786;2023-03-31T16:37:02;98690.44;;;3.90;91.42
49627;BME280;35527;54.616;39.786;2023-03-31T16:40:14;98699.78;;;3.91;91.96
49627;BME280;35527;54.616;39.786;2023-03-31T16:43:23;98697.13;;;3.94;91.94
49627;BME280;35527;54.616;39.786;2023-03-31T16:46:26;98702.91;;;3.71;91.93
49627;BME280;35527;54.616;39.786;2023-03-31T16:49:28;98689.59;;;3.60;92.96
49627;BME280;35527;54.616;39.786;2023-03-31T16:52:33;98703.06;;;3.67;93.09
49627;BME280;35527;54.616;39.786;2023-03-31T16:55:37;98698.09;;;3.60;93.73
49627;BME280;35527;54.616;39.786;2023-03-31T16:58:42;98701.28;;;3.69;93.20
49627;BME280;35527;54.616;39.786;2023-03-31T17:01:48;98706.84;;;3.83;92.06
49627;BME280;35527;54.616;39.786;2023-03-31T17:04:52;98702.19;;;3.68;91.82
49627;BME280;35527;54.616;39.786;2023-03-31T17:07:59;98713.59;;;3.56;91.66
49627;BME280;35527;54.616;39.786;2023-03-31T17:11:06;98712.69;;;3.58;91.33
49627;BME280;35527;54.616;39.786;2023-03-31T17:14:09;98703.56;;;3.50;91.49
49627;BME280;35527;54.616;39.786;2023-03-31T17:17:16;98709.28;;;3.58;90.97
49627;BME280;35527;54.616;39.786;2023-03-31T17:20:19;98718.91;;;3.50;90.00
49627;BME280;35527;54.616;39.786;2023-03-31T17:23:25;98698.56;;;3.45;90.51
49627;BME280;35527;54.616;39.786;2023-03-31T17:26:28;98703.59;;;3.48;91.21
49627;BME280;35527;54.616;39.786;2023-03-31T17:29:33;98708.19;;;3.67;90.57
49627;BME280;35527;54.616;39.786;2023-03-31T17:32:37;98689.94;;;3.49;90.83
49627;BME280;35527;54.616;39.786;2023-03-31T17:35:41;98703.22;;;3.60;91.21
49627;BME280;35527;54.616;39.786;2023-03-31T17:38:48;98703.47;;;3.53;90.77
49627;BME280;35527;54.616;39.786;2023-03-31T17:41:53;98696.84;;;3.46;91.79
49627;BME280;35527;54.616;39.786;2023-03-31T17:45:00;98702.75;;;3.48;91.35
49627;BME280;35527;54.616;39.786;2023-03-31T17:48:04;98712.00;;;3.52;91.60
49627;BME280;35527;54.616;39.786;2023-03-31T17:51:11;98705.09;;;3.55;91.31
49627;BME280;35527;54.616;39.786;2023-03-31T17:54:20;98706.06;;;3.51;91.65
49627;BME280;35527;54.616;39.786;2023-03-31T17:57:24;98700.16;;;3.49;91.54
49627;BME280;35527;54.616;39.786;2023-03-31T18:00:28;98702.84;;;3.45;91.96
49627;BME280;35527;54.616;39.786;2023-03-31T18:03:32;98697.91;;;3.38;92.85
49627;BME280;35527;54.616;39.786;2023-03-31T18:06:36;98709.69;;;3.13;93.63
49627;BME280;35527;54.616;39.786;2023-03-31T18:09:43;98709.63;;;3.14;93.87
49627;BME280;35527;54.616;39.786;2023-03-31T18:12:47;98685.75;;;3.15;93.01
49627;BME280;35527;54.616;39.786;2023-03-31T18:15:51;98693.16;;;3.25;94.83
49627;BME280;35527;54.616;39.786;2023-03-31T18:18:56;98699.84;;;3.29;95.12
49627;BME280;35527;54.616;39.786;2023-03-31T18:22:00;98695.16;;;3.15;95.38
49627;BME280;35527;54.616;39.786;2023-03-31T18:25:03;98702.66;;;3.20;96.25
49627;BME280;35527;54.616;39.786;2023-03-31T18:28:09;98697.38;;;3.26;95.55
49627;BME280;35527;54.616;39.786;2023-03-31T18:31:13;98702.28;;;3.02;96.18
49627;BME280;35527;54.616;39.786;2023-03-31T18:34:16;98706.03;;;2.89;97.81
49627;BME280;35527;54.616;39.786;2023-03-31T18:37:19;98689.84;;;2.90;98.10
49627;BME280;35527;54.616;39.786;2023-03-31T18:40:23;98689.69;;;2.94;98.50
49627;BME280;35527;54.616;39.786;2023-03-31T18:43:27;98658.03;;;2.69;98.93
49627;BME280;35527;54.616;39.786;2023-03-31T18:46:32;98679.00;;;2.80;99.22
49627;BME280;35527;54.616;39.786;2023-03-31T18:49:36;98681.53;;;2.82;100.00
49627;BME280;35527;54.616;39.786;2023-03-31T18:52:38;98689.16;;;2.83;100.00
49627;BME280;35527;54.616;39.786;2023-03-31T18:55:43;98688.09;;;2.92;100.00